sensor_id;sensor_type;location;lat;lon;timestamp;pressure;altitude;pressure_sealevel;temperature;humidity
40574;BME280;26283;49.020;8.644;2023-04-29T00:00:21;98937.12;;;16.07;56.57
40574;BME280;26283;49.020;8.644;2023-04-29T00:02:46;98935.22;;;16.08;56.57
40574;BME280;26283;49.020;8.644;2023-04-29T00:05:11;98939.84;;;16.07;56.56
40574;BME280;26283;49.020;8.644;2023-04-29T00:07:37;98931.69;;;16.07;56.57
40574;BME280;26283;49.020;8.644;2023-04-29T00:10:03;98932.50;;;16.08;56.57
40574;BME280;26283;49.020;8.644;2023-04-29T00:12:28;98940.66;;;16.08;56.56
40574;BME280;26283;49.020;8.644;2023-04-29T00:14:56;98937.12;;;16.07;56.58
40574;BME280;26283;49.020;8.644;2023-04-29T00:17:21;98933.59;;;16.07;56.59
40574;BME280;26283;49.020;8.644;2023-04-29T00:19:47;98943.66;;;16.06;56.60
40574;BME280;26283;49.020;8.644;2023-04-29T00:22:12;98930.06;;;16.06;56.62
40574;BME280;26283;49.020;8.644;2023-04-29T00:24:38;98942.81;;;16.06;56.63
40574;BME280;26283;49.020;8.644;2023-04-29T00:27:03;98933.03;;;16.05;56.66
40574;BME280;26283;49.020;8.644;2023-04-29T00:29:30;98940.38;;;16.04;56.69
40574;BME280;26283;49.020;8.644;2023-04-29T00:31:55;98939.53;;;16.04;56.73
40574;BME280;26283;49.020;8.644;2023-04-29T00:34:20;98930.56;;;16.03;56.75
40574;BME280;26283;49.020;8.644;2023-04-29T00:36:46;98939.53;;;16.04;56.76
40574;BME280;26283;49.020;8.644;2023-04-29T00:39:12;98939.81;;;16.02;56.77
40574;BME280;26283;49.020;8.644;2023-04-29T00:41:38;98941.75;;;16.02;56.79
40574;BME280;26283;49.020;8.644;2023-04-29T00:44:03;98930.88;;;16.02;56.82
40574;BME280;26283;49.020;8.644;2023-04-29T00:46:28;98933.84;;;16.00;56.83
40574;BME280;26283;49.020;8.644;2023-04-29T00:48:54;98940.09;;;16.01;56.84
40574;BME280;26283;49.020;8.644;2023-04-29T00:51:20;98943.06;;;15.99;56.86
40574;BME280;26283;49.020;8.644;2023-04-29T00:53:46;98942.25;;;15.99;56.88
40574;BME280;26283;49.020;8.644;2023-04-29T00:56:12;98946.63;;;16.00;56.91
40574;BME280;26283;49.020;8.644;2023-04-29T00:58:39;98943.06;;;15.99;56.94
40574;BME280;26283;49.020;8.644;2023-04-29T01:01:04;98944.97;;;15.99;56.97
40574;BME280;26283;49.020;8.644;2023-04-29T01:03:30;98946.06;;;15.98;56.99
40574;BME280;26283;49.020;8.644;2023-04-29T01:09:10;98946.31;;;15.96;57.12
40574;BME280;26283;49.020;8.644;2023-04-29T01:11:52;98947.13;;;15.97;57.09
40574;BME280;26283;49.020;8.644;2023-04-29T01:14:19;98944.66;;;15.95;57.16
40574;BME280;26283;49.020;8.644;2023-04-29T01:16:58;98944.94;;;15.94;57.16
40574;BME280;26283;49.020;8.644;2023-04-29T01:19:49;98952.00;;;15.95;57.24
40574;BME280;26283;49.020;8.644;2023-04-29T01:22:16;98946.56;;;15.95;57.29
40574;BME280;26283;49.020;8.644;2023-04-29T01:24:43;98954.16;;;15.93;57.23
40574;BME280;26283;49.020;8.644;2023-04-29T01:27:29;98948.72;;;15.93;57.29
40574;BME280;26283;49.020;8.644;2023-04-29T01:30:11;98954.97;;;15.93;57.31
40574;BME280;26283;49.020;8.644;2023-04-29T01:32:45;98951.44;;;15.93;57.35
40574;BME280;26283;49.020;8.644;2023-04-29T01:35:49;98947.09;;;15.92;57.32
40574;BME280;26283;49.020;8.644;2023-04-29T01:40:55;98950.06;;;15.90;57.36
40574;BME280;26283;49.020;8.644;2023-04-29T01:43:27;98945.72;;;15.89;57.43
40574;BME280;26283;49.020;8.644;2023-04-29T01:45:55;98952.78;;;15.90;57.42
40574;BME280;26283;49.020;8.644;2023-04-29T01:48:22;98953.03;;;15.89;57.42
40574;BME280;26283;49.020;8.644;2023-04-29T01:50:48;98949.25;;;15.90;57.43
40574;BME280;26283;49.020;8.644;2023-04-29T01:53:13;98948.69;;;15.88;57.43
40574;BME280;26283;49.020;8.644;2023-04-29T01:55:39;98952.22;;;15.88;57.43
40574;BME280;26283;49.020;8.644;2023-04-29T01:58:04;98946.78;;;15.88;57.43
40574;BME280;26283;49.020;8.644;2023-04-29T02:00:30;98960.38;;;15.88;57.44
40574;BME280;26283;49.020;8.644;2023-04-29T02:02:55;98952.22;;;15.88;57.42
40574;BME280;26283;49.020;8.644;2023-04-29T02:05:20;98946.78;;;15.88;57.43
40574;BME280;26283;49.020;8.644;2023-04-29T02:07:46;98952.22;;;15.88;57.44
40574;BME280;26283;49.020;8.644;2023-04-29T02:10:12;98951.41;;;15.88;57.43
40574;BME280;26283;49.020;8.644;2023-04-29T02:12:38;98951.66;;;15.86;57.46
40574;BME280;26283;49.020;8.644;2023-04-29T02:15:03;98958.72;;;15.87;57.46
40574;BME280;26283;49.020;8.644;2023-04-29T02:17:29;98957.91;;;15.87;57.47
40574;BME280;26283;49.020;8.644;2023-04-29T02:19:54;98960.62;;;15.87;57.46
40574;BME280;26283;49.020;8.644;2023-04-29T02:22:20;98966.06;;;15.87;57.46
40574;BME280;26283;49.020;8.644;2023-04-29T02:24:46;98960.62;;;15.87;57.46
40574;BME280;26283;49.020;8.644;2023-04-29T02:27:11;98968.22;;;15.85;57.47
40574;BME280;26283;49.020;8.644;2023-04-29T02:29:37;98968.22;;;15.85;57.46
40574;BME280;26283;49.020;8.644;2023-04-29T02:32:02;98968.22;;;15.85;57.43
40574;BME280;26283;49.020;8.644;2023-04-29T02:34:27;98967.41;;;15.84;57.44
40574;BME280;26283;49.020;8.644;2023-04-29T02:36:53;98969.28;;;15.84;57.45
40574;BME280;26283;49.020;8.644;2023-04-29T02:39:18;98977.44;;;15.84;57.45
40574;BME280;26283;49.020;8.644;2023-04-29T02:41:44;98973.09;;;15.83;57.47
40574;BME280;26283;49.020;8.644;2023-04-29T02:44:12;98975.00;;;15.82;57.47
40574;BME280;26283;49.020;8.644;2023-04-29T02:46:37;98981.25;;;15.83;57.48
40574;BME280;26283;49.020;8.644;2023-04-29T02:49:04;98982.06;;;15.83;57.48
40574;BME280;26283;49.020;8.644;2023-04-29T02:51:30;98980.41;;;15.82;57.47
40574;BME280;26283;49.020;8.644;2023-04-29T02:53:55;98973.34;;;15.81;57.48
40574;BME280;26283;49.020;8.644;2023-04-29T02:56:21;98972.53;;;15.81;57.49
40574;BME280;26283;49.020;8.644;2023-04-29T02:58:47;98982.31;;;15.82;57.51
40574;BME280;26283;49.020;8.644;2023-04-29T03:01:12;98969.81;;;15.81;57.52
40574;BME280;26283;49.020;8.644;2023-04-29T03:03:38;98972.53;;;15.81;57.53
40574;BME280;26283;49.020;8.644;2023-04-29T03:06:06;98983.69;;;15.79;57.53
40574;BME280;26283;49.020;8.644;2023-04-29T03:08:32;98985.31;;;15.80;57.54
40574;BME280;26283;49.020;8.644;2023-04-29T03:10:58;98980.16;;;15.79;57.54
40574;BME280;26283;49.020;8.644;2023-04-29T03:13:23;98978.25;;;15.79;57.55
40574;BME280;26283;49.020;8.644;2023-04-29T03:15:48;98980.97;;;15.79;57.54
40574;BME280;26283;49.020;8.644;2023-04-29T03:18:14;98992.91;;;15.78;57.55
40574;BME280;26283;49.020;8.644;2023-04-29T03:20:39;98990.19;;;15.78;57.56
40574;BME280;26283;49.020;8.644;2023-04-29T03:23:05;98988.56;;;15.77;57.57
40574;BME280;26283;49.020;8.644;2023-04-29T03:25:30;98990.19;;;15.78;57.58
40574;BME280;26283;49.020;8.644;2023-04-29T03:27:58;98983.12;;;15.77;57.59
40574;BME280;26283;49.020;8.644;2023-04-29T03:30:23;98985.03;;;15.76;57.62
40574;BME280;26283;49.020;8.644;2023-04-29T03:32:49;98982.56;;;15.75;57.64
40574;BME280;26283;49.020;8.644;2023-04-29T03:35:14;98970.88;;;15.74;57.64
40574;BME280;26283;49.020;8.644;2023-04-29T03:37:40;98977.94;;;15.75;57.64
40574;BME280;26283;49.020;8.644;2023-04-29T03:40:08;98986.09;;;15.75;57.65
40574;BME280;26283;49.020;8.644;2023-04-29T03:42:34;98989.88;;;15.74;57.67
40574;BME280;26283;49.020;8.644;2023-04-29T03:44:59;98989.06;;;15.74;57.67
40574;BME280;26283;49.020;8.644;2023-04-29T03:47:25;98984.72;;;15.73;57.68
40574;BME280;26283;49.020;8.644;2023-04-29T03:49:50;98982.00;;;15.73;57.68
40574;BME280;26283;49.020;8.644;2023-04-29T03:52:18;98992.03;;;15.72;57.70
40574;BME280;26283;49.020;8.644;2023-04-29T03:54:44;98993.13;;;15.71;57.73
40574;BME280;26283;49.020;8.644;2023-04-29T03:57:09;99001.00;;;15.73;57.73
40574;BME280;26283;49.020;8.644;2023-04-29T03:59:35;98998.56;;;15.71;57.75
40574;BME280;26283;49.020;8.644;2023-04-29T04:02:01;98998.56;;;15.71;57.75
40574;BME280;26283;49.020;8.644;2023-04-29T04:04:26;99008.59;;;15.71;57.77
40574;BME280;26283;49.020;8.644;2023-04-29T04:06:51;99005.06;;;15.70;57.80
40574;BME280;26283;49.020;8.644;2023-04-29T04:09:17;99007.78;;;15.70;57.80
40574;BME280;26283;49.020;8.644;2023-04-29T04:11:43;99009.69;;;15.70;57.81
40574;BME280;26283;49.020;8.644;2023-04-29T04:14:09;99011.56;;;15.69;57.82
40574;BME280;26283;49.020;8.644;2023-04-29T04:16:34;99008.03;;;15.69;57.82
40574;BME280;26283;49.020;8.644;2023-04-29T04:19:00;99012.66;;;15.68;57.82
40574;BME280;26283;49.020;8.644;2023-04-29T04:21:28;99015.38;;;15.68;57.83
40574;BME280;26283;49.020;8.644;2023-04-29T04:23:54;99020.78;;;15.68;57.84
40574;BME280;26283;49.020;8.644;2023-04-29T04:26:22;99026.22;;;15.68;57.85
40574;BME280;26283;49.020;8.644;2023-04-29T04:28:48;99027.31;;;15.67;57.86
40574;BME280;26283;49.020;8.644;2023-04-29T04:31:13;99027.31;;;15.67;57.87
40574;BME280;26283;49.020;8.644;2023-04-29T04:33:41;99022.94;;;15.66;57.87
40574;BME280;26283;49.020;8.644;2023-04-29T04:36:07;99037.34;;;15.67;57.88
40574;BME280;26283;49.020;8.644;2023-04-29T04:38:32;99047.41;;;15.66;57.89
40574;BME280;26283;49.020;8.644;2023-04-29T04:40:58;99055.53;;;15.66;57.89
40574;BME280;26283;49.020;8.644;2023-04-29T04:43:24;99053.66;;;15.67;57.91
40574;BME280;26283;49.020;8.644;2023-04-29T04:45:52;99056.63;;;15.65;57.93
40574;BME280;26283;49.020;8.644;2023-04-29T04:48:17;99062.06;;;15.65;57.92
40574;BME280;26283;49.020;8.644;2023-04-29T04:50:43;99056.63;;;15.65;57.94
40574;BME280;26283;49.020;8.644;2023-04-29T04:53:08;99056.87;;;15.64;57.95
40574;BME280;26283;49.020;8.644;2023-04-29T04:55:33;99065.84;;;15.64;57.95
40574;BME280;26283;49.020;8.644;2023-04-29T04:57:59;99064.19;;;15.63;57.96
40574;BME280;26283;49.020;8.644;2023-04-29T05:00:24;99066.91;;;15.63;57.96
40574;BME280;26283;49.020;8.644;2023-04-29T05:02:50;99073.44;;;15.62;57.95
40574;BME280;26283;49.020;8.644;2023-04-29T05:05:15;99078.84;;;15.62;57.98
40574;BME280;26283;49.020;8.644;2023-04-29T05:07:40;99085.13;;;15.63;57.97
40574;BME280;26283;49.020;8.644;2023-04-29T05:10:06;99081.56;;;15.62;57.98
40574;BME280;26283;49.020;8.644;2023-04-29T05:12:35;99088.06;;;15.61;57.99
40574;BME280;26283;49.020;8.644;2023-04-29T05:15:01;99093.50;;;15.61;57.99
40574;BME280;26283;49.020;8.644;2023-04-29T05:17:28;99090.78;;;15.61;58.01
40574;BME280;26283;49.020;8.644;2023-04-29T05:19:53;99097.31;;;15.60;58.00
40574;BME280;26283;49.020;8.644;2023-04-29T05:22:18;99095.41;;;15.61;58.01
40574;BME280;26283;49.020;8.644;2023-04-29T05:24:47;99100.03;;;15.60;58.00
40574;BME280;26283;49.020;8.644;2023-04-29T05:27:15;99107.34;;;15.60;58.02
40574;BME280;26283;49.020;8.644;2023-04-29T05:29:41;99109.25;;;15.59;58.04
40574;BME280;26283;49.020;8.644;2023-04-29T05:32:08;99097.59;;;15.59;58.04
40574;BME280;26283;49.020;8.644;2023-04-29T05:34:34;99104.91;;;15.58;58.03
40574;BME280;26283;49.020;8.644;2023-04-29T05:36:59;99105.75;;;15.59;58.04
40574;BME280;26283;49.020;8.644;2023-04-29T05:39:24;99105.75;;;15.59;58.06
40574;BME280;26283;49.020;8.644;2023-04-29T05:41:50;99108.69;;;15.57;58.04
40574;BME280;26283;49.020;8.644;2023-04-29T05:44:16;99103.28;;;15.57;58.05
40574;BME280;26283;49.020;8.644;2023-04-29T05:46:41;99116.84;;;15.57;58.05
40574;BME280;26283;49.020;8.644;2023-04-29T05:49:07;99114.12;;;15.57;58.05
40574;BME280;26283;49.020;8.644;2023-04-29T05:51:33;99121.69;;;15.55;58.05
40574;BME280;26283;49.020;8.644;2023-04-29T05:53:58;99128.78;;;15.56;58.05
40574;BME280;26283;49.020;8.644;2023-04-29T05:56:24;99117.94;;;15.56;58.05
40574;BME280;26283;49.020;8.644;2023-04-29T05:58:50;99133.41;;;15.56;58.06
40574;BME280;26283;49.020;8.644;2023-04-29T06:01:16;99132.53;;;15.55;58.07
40574;BME280;26283;49.020;8.644;2023-04-29T06:03:44;99138.84;;;15.56;58.07
40574;BME280;26283;49.020;8.644;2023-04-29T06:06:10;99137.16;;;15.55;58.09
40574;BME280;26283;49.020;8.644;2023-04-29T06:08:36;99148.03;;;15.55;58.09
40574;BME280;26283;49.020;8.644;2023-04-29T06:11:02;99152.63;;;15.54;58.09
40574;BME280;26283;49.020;8.644;2023-04-29T06:13:30;99155.34;;;15.54;58.10
40574;BME280;26283;49.020;8.644;2023-04-29T06:15:56;99155.34;;;15.54;58.08
40574;BME280;26283;49.020;8.644;2023-04-29T06:18:21;99162.69;;;15.54;58.08
40574;BME280;26283;49.020;8.644;2023-04-29T06:20:47;99163.50;;;15.54;58.10
40574;BME280;26283;49.020;8.644;2023-04-29T06:23:12;99168.94;;;15.54;58.08
40574;BME280;26283;49.020;8.644;2023-04-29T06:25:38;99172.72;;;15.53;58.07
40574;BME280;26283;49.020;8.644;2023-04-29T06:28:03;99178.16;;;15.53;58.08
40574;BME280;26283;49.020;8.644;2023-04-29T06:30:29;99180.88;;;15.53;58.09
40574;BME280;26283;49.020;8.644;2023-04-29T06:32:56;99182.75;;;15.53;58.09
40574;BME280;26283;49.020;8.644;2023-04-29T06:35:22;99182.75;;;15.53;58.09
40574;BME280;26283;49.020;8.644;2023-04-29T06:37:47;99180.03;;;15.53;58.09
40574;BME280;26283;49.020;8.644;2023-04-29T06:40:13;99189.00;;;15.53;58.11
40574;BME280;26283;49.020;8.644;2023-04-29T06:42:38;99190.09;;;15.52;58.11
40574;BME280;26283;49.020;8.644;2023-04-29T06:45:04;99196.34;;;15.53;58.12
40574;BME280;26283;49.020;8.644;2023-04-29T06:47:29;99193.87;;;15.51;58.11
40574;BME280;26283;49.020;8.644;2023-04-29T06:49:55;99199.06;;;15.53;58.12
40574;BME280;26283;49.020;8.644;2023-04-29T06:52:20;99203.09;;;15.50;58.12
40574;BME280;26283;49.020;8.644;2023-04-29T06:54:46;99209.91;;;15.53;58.15
40574;BME280;26283;49.020;8.644;2023-04-29T06:57:11;99203.66;;;15.52;58.17
40574;BME280;26283;49.020;8.644;2023-04-29T06:59:36;99209.09;;;15.52;58.17
40574;BME280;26283;49.020;8.644;2023-04-29T07:02:02;99219.97;;;15.52;58.18
40574;BME280;26283;49.020;8.644;2023-04-29T07:04:27;99214.53;;;15.52;58.18
40574;BME280;26283;49.020;8.644;2023-04-29T07:06:53;99221.59;;;15.53;58.21
40574;BME280;26283;49.020;8.644;2023-04-29T07:09:24;99224.31;;;15.53;58.19
40574;BME280;26283;49.020;8.644;2023-04-29T07:11:52;99221.59;;;15.53;58.20
40574;BME280;26283;49.020;8.644;2023-04-29T07:14:17;99228.94;;;15.53;58.19
40574;BME280;26283;49.020;8.644;2023-04-29T07:16:42;99225.97;;;15.54;58.21
40574;BME280;26283;49.020;8.644;2023-04-29T07:19:07;99231.41;;;15.54;58.22
40574;BME280;26283;49.020;8.644;2023-04-29T07:21:33;99239.53;;;15.54;58.23
40574;BME280;26283;49.020;8.644;2023-04-29T07:23:58;99242.03;;;15.56;58.25
40574;BME280;26283;49.020;8.644;2023-04-29T07:26:26;99241.19;;;15.55;58.26
40574;BME280;26283;49.020;8.644;2023-04-29T07:28:51;99247.47;;;15.56;58.26
40574;BME280;26283;49.020;8.644;2023-04-29T07:31:18;99246.63;;;15.55;58.26
40574;BME280;26283;49.020;8.644;2023-04-29T07:33:44;99251.84;;;15.57;58.27
40574;BME280;26283;49.020;8.644;2023-04-29T07:36:10;99252.66;;;15.57;58.27
40574;BME280;26283;49.020;8.644;2023-04-29T07:38:36;99252.66;;;15.57;58.26
40574;BME280;26283;49.020;8.644;2023-04-29T07:41:03;99247.22;;;15.57;58.24
40574;BME280;26283;49.020;8.644;2023-04-29T07:43:29;99253.47;;;15.58;58.23
40574;BME280;26283;49.020;8.644;2023-04-29T07:45:54;99249.94;;;15.57;58.22
40574;BME280;26283;49.020;8.644;2023-04-29T07:48:20;99252.41;;;15.59;58.22
40574;BME280;26283;49.020;8.644;2023-04-29T07:50:46;99259.72;;;15.58;58.21
40574;BME280;26283;49.020;8.644;2023-04-29T07:53:11;99266.00;;;15.59;58.21
40574;BME280;26283;49.020;8.644;2023-04-29T07:55:37;99264.06;;;15.59;58.20
40574;BME280;26283;49.020;8.644;2023-04-29T07:58:03;99260.56;;;15.59;58.19
40574;BME280;26283;49.020;8.644;2023-04-29T08:00:30;99254.84;;;15.60;58.18
40574;BME280;26283;49.020;8.644;2023-04-29T08:02:56;99269.50;;;15.59;58.18
40574;BME280;26283;49.020;8.644;2023-04-29T08:05:22;99266.53;;;15.61;58.17
40574;BME280;26283;49.020;8.644;2023-04-29T08:07:48;99263.81;;;15.61;58.16
40574;BME280;26283;49.020;8.644;2023-04-29T08:10:14;99267.34;;;15.61;58.14
40574;BME280;26283;49.020;8.644;2023-04-29T08:12:40;99274.44;;;15.62;58.15
40574;BME280;26283;49.020;8.644;2023-04-29T08:15:08;99269.81;;;15.63;58.14
40574;BME280;26283;49.020;8.644;2023-04-29T08:17:34;99277.16;;;15.62;58.14
40574;BME280;26283;49.020;8.644;2023-04-29T08:19:59;99275.25;;;15.63;58.11
40574;BME280;26283;49.020;8.644;2023-04-29T08:22:25;99271.72;;;15.62;58.10
40574;BME280;26283;49.020;8.644;2023-04-29T08:24:50;99282.59;;;15.62;58.10
40574;BME280;26283;49.020;8.644;2023-04-29T08:27:16;99275.25;;;15.63;58.07
40574;BME280;26283;49.020;8.644;2023-04-29T08:29:41;99277.97;;;15.63;58.07
40574;BME280;26283;49.020;8.644;2023-04-29T08:32:07;99281.50;;;15.63;58.08
40574;BME280;26283;49.020;8.644;2023-04-29T08:34:32;99285.88;;;15.64;58.08
40574;BME280;26283;49.020;8.644;2023-04-29T08:37:00;99285.88;;;15.64;58.07
40574;BME280;26283;49.020;8.644;2023-04-29T08:39:27;99283.16;;;15.64;58.06
40574;BME280;26283;49.020;8.644;2023-04-29T08:41:52;99279.63;;;15.64;58.09
40574;BME280;26283;49.020;8.644;2023-04-29T08:44:19;99283.16;;;15.64;58.10
40574;BME280;26283;49.020;8.644;2023-04-29T08:46:46;99282.34;;;15.64;58.11
40574;BME280;26283;49.020;8.644;2023-04-29T08:49:12;99290.22;;;15.65;58.11
40574;BME280;26283;49.020;8.644;2023-04-29T08:51:38;99289.41;;;15.65;58.13
40574;BME280;26283;49.020;8.644;2023-04-29T08:54:03;99290.22;;;15.65;58.13
40574;BME280;26283;49.020;8.644;2023-04-29T08:56:29;99292.13;;;15.65;58.13
40574;BME280;26283;49.020;8.644;2023-04-29T08:58:56;99290.22;;;15.65;58.13
40574;BME280;26283;49.020;8.644;2023-04-29T09:01:28;99298.38;;;15.65;58.14
40574;BME280;26283;49.020;8.644;2023-04-29T09:06:45;99297.31;;;15.66;58.15
40574;BME280;26283;49.020;8.644;2023-04-29T09:09:11;99297.31;;;15.66;58.12
40574;BME280;26283;49.020;8.644;2023-04-29T09:11:38;99297.31;;;15.66;58.13
40574;BME280;26283;49.020;8.644;2023-04-29T09:14:07;99304.38;;;15.67;58.01
40574;BME280;26283;49.020;8.644;2023-04-29T09:16:33;99298.97;;;15.67;57.99
40574;BME280;26283;49.020;8.644;2023-04-29T09:19:01;99300.84;;;15.67;57.91
40574;BME280;26283;49.020;8.644;2023-04-29T09:21:27;99304.38;;;15.67;58.01
40574;BME280;26283;49.020;8.644;2023-04-29T09:23:55;99300.59;;;15.68;58.05
40574;BME280;26283;49.020;8.644;2023-04-29T09:26:21;99306.84;;;15.69;58.08
40574;BME280;26283;49.020;8.644;2023-04-29T09:29:10;99306.84;;;15.69;58.09
40574;BME280;26283;49.020;8.644;2023-04-29T09:31:37;99306.28;;;15.67;58.12
40574;BME280;26283;49.020;8.644;2023-04-29T09:34:03;99305.22;;;15.68;58.06
40574;BME280;26283;49.020;8.644;2023-04-29T09:39:07;99318.56;;;15.69;58.12
40574;BME280;26283;49.020;8.644;2023-04-29T09:41:41;99317.72;;;15.69;58.07
40574;BME280;26283;49.020;8.644;2023-04-29T09:44:10;99319.38;;;15.70;58.08
40574;BME280;26283;49.020;8.644;2023-04-29T09:46:36;99318.56;;;15.69;58.06
40574;BME280;26283;49.020;8.644;2023-04-29T09:49:02;99317.72;;;15.69;58.04
40574;BME280;26283;49.020;8.644;2023-04-29T09:51:29;99325.88;;;15.69;58.03
40574;BME280;26283;49.020;8.644;2023-04-29T09:54:00;99326.44;;;15.71;57.99
40574;BME280;26283;49.020;8.644;2023-04-29T09:56:27;99321.03;;;15.71;57.94
40574;BME280;26283;49.020;8.644;2023-04-29T09:58:55;99322.09;;;15.70;57.90
40574;BME280;26283;49.020;8.644;2023-04-29T10:01:26;99328.34;;;15.70;57.87
40574;BME280;26283;49.020;8.644;2023-04-29T10:03:56;99321.84;;;15.71;57.85
40574;BME280;26283;49.020;8.644;2023-04-29T10:06:22;99321.03;;;15.71;57.81
40574;BME280;26283;49.020;8.644;2023-04-29T10:08:49;99328.09;;;15.72;57.78
40574;BME280;26283;49.020;8.644;2023-04-29T10:11:16;99327.28;;;15.71;57.75
40574;BME280;26283;49.020;8.644;2023-04-29T10:13:41;99324.56;;;15.71;57.71
40574;BME280;26283;49.020;8.644;2023-04-29T10:16:22;99331.63;;;15.72;57.69
40574;BME280;26283;49.020;8.644;2023-04-29T10:18:53;99336.00;;;15.73;57.65
40574;BME280;26283;49.020;8.644;2023-04-29T10:21:29;99341.44;;;15.73;57.61
40574;BME280;26283;49.020;8.644;2023-04-29T10:23:58;99342.50;;;15.72;57.59
40574;BME280;26283;49.020;8.644;2023-04-29T10:26:27;99342.50;;;15.72;57.54
40574;BME280;26283;49.020;8.644;2023-04-29T10:28:55;99341.44;;;15.73;57.52
40574;BME280;26283;49.020;8.644;2023-04-29T10:31:21;99346.88;;;15.73;57.48
40574;BME280;26283;49.020;8.644;2023-04-29T10:33:50;99343.09;;;15.74;57.44
40574;BME280;26283;49.020;8.644;2023-04-29T10:36:20;99345.81;;;15.74;57.40
40574;BME280;26283;49.020;8.644;2023-04-29T10:38:52;99337.66;;;15.74;57.37
40574;BME280;26283;49.020;8.644;2023-04-29T10:41:23;99337.66;;;15.74;57.34
40574;BME280;26283;49.020;8.644;2023-04-29T10:43:51;99344.72;;;15.75;57.32
40574;BME280;26283;49.020;8.644;2023-04-29T10:48:55;99336.56;;;15.75;57.28
40574;BME280;26283;49.020;8.644;2023-04-29T10:51:31;99343.66;;;15.76;57.26
40574;BME280;26283;49.020;8.644;2023-04-29T10:53:59;99343.66;;;15.76;57.25
40574;BME280;26283;49.020;8.644;2023-04-29T10:59:12;99346.94;;;15.79;57.21
40574;BME280;26283;49.020;8.644;2023-04-29T11:01:58;99343.66;;;15.76;57.17
40574;BME280;26283;49.020;8.644;2023-04-29T11:04:23;99348.03;;;15.77;57.17
40574;BME280;26283;49.020;8.644;2023-04-29T11:06:54;99348.03;;;15.77;57.12
40574;BME280;26283;49.020;8.644;2023-04-29T11:14:50;99345.06;;;15.79;57.10
40574;BME280;26283;49.020;8.644;2023-04-29T11:17:17;99343.41;;;15.78;57.10
40574;BME280;26283;49.020;8.644;2023-04-29T11:19:46;99337.97;;;15.78;57.04
40574;BME280;26283;49.020;8.644;2023-04-29T11:29:56;99326.84;;;15.80;57.00
40574;BME280;26283;49.020;8.644;2023-04-29T11:32:26;99338.78;;;15.79;57.00
40574;BME280;26283;49.020;8.644;2023-04-29T11:35:07;99334.19;;;15.79;57.00
40574;BME280;26283;49.020;8.644;2023-04-29T11:37:34;99340.44;;;15.80;57.00
40574;BME280;26283;49.020;8.644;2023-04-29T11:39:59;99340.44;;;15.80;56.96
40574;BME280;26283;49.020;8.644;2023-04-29T11:42:27;99337.72;;;15.80;56.95
40574;BME280;26283;49.020;8.644;2023-04-29T11:44:54;99340.44;;;15.80;56.95
40574;BME280;26283;49.020;8.644;2023-04-29T11:47:29;99347.50;;;15.81;56.94
40574;BME280;26283;49.020;8.644;2023-04-29T11:50:02;99352.94;;;15.81;56.94
40574;BME280;26283;49.020;8.644;2023-04-29T11:52:28;99342.06;;;15.81;56.93
40574;BME280;26283;49.020;8.644;2023-04-29T11:54:53;99346.41;;;15.82;56.90
40574;BME280;26283;49.020;8.644;2023-04-29T11:57:19;99349.12;;;15.82;56.90
40574;BME280;26283;49.020;8.644;2023-04-29T11:59:48;99341.25;;;15.80;56.90
40574;BME280;26283;49.020;8.644;2023-04-29T12:02:14;99342.06;;;15.81;56.89
40574;BME280;26283;49.020;8.644;2023-04-29T12:04:48;99344.78;;;15.81;56.89
40574;BME280;26283;49.020;8.644;2023-04-29T12:07:20;99344.53;;;15.82;56.90
40574;BME280;26283;49.020;8.644;2023-04-29T12:09:45;99348.31;;;15.81;56.89
40574;BME280;26283;49.020;8.644;2023-04-29T12:12:12;99338.28;;;15.82;56.88
40574;BME280;26283;49.020;8.644;2023-04-29T12:14:39;99346.41;;;15.82;56.88
40574;BME280;26283;49.020;8.644;2023-04-29T12:17:06;99340.16;;;15.81;56.88
40574;BME280;26283;49.020;8.644;2023-04-29T12:19:32;99338.28;;;15.82;56.89
40574;BME280;26283;49.020;8.644;2023-04-29T12:21:58;99336.38;;;15.82;56.89
40574;BME280;26283;49.020;8.644;2023-04-29T12:24:24;99343.44;;;15.83;56.90
40574;BME280;26283;49.020;8.644;2023-04-29T12:26:49;99343.69;;;15.82;56.90
40574;BME280;26283;49.020;8.644;2023-04-29T12:29:15;99354.56;;;15.82;56.91
40574;BME280;26283;49.020;8.644;2023-04-29T12:31:40;99346.41;;;15.82;56.92
40574;BME280;26283;49.020;8.644;2023-04-29T12:34:09;99352.69;;;15.82;56.93
40574;BME280;26283;49.020;8.644;2023-04-29T12:36:35;99351.84;;;15.82;56.94
40574;BME280;26283;49.020;8.644;2023-04-29T12:39:04;99352.69;;;15.82;56.93
40574;BME280;26283;49.020;8.644;2023-04-29T12:41:39;99352.69;;;15.82;56.93
40574;BME280;26283;49.020;8.644;2023-04-29T12:44:05;99353.50;;;15.83;56.93
40574;BME280;26283;49.020;8.644;2023-04-29T12:46:39;99361.66;;;15.83;56.89
40574;BME280;26283;49.020;8.644;2023-04-29T12:49:05;99354.31;;;15.83;56.92
40574;BME280;26283;49.020;8.644;2023-04-29T12:51:32;99357.03;;;15.83;56.90
40574;BME280;26283;49.020;8.644;2023-04-29T12:54:02;99360.59;;;15.84;56.90
40574;BME280;26283;49.020;8.644;2023-04-29T12:56:29;99358.94;;;15.83;56.89
40574;BME280;26283;49.020;8.644;2023-04-29T12:58:55;99366.25;;;15.82;56.89
40574;BME280;26283;49.020;8.644;2023-04-29T13:01:20;99363.31;;;15.84;56.89
40574;BME280;26283;49.020;8.644;2023-04-29T13:03:45;99367.91;;;15.83;56.89
40574;BME280;26283;49.020;8.644;2023-04-29T13:06:11;99369.56;;;15.84;56.88
40574;BME280;26283;49.020;8.644;2023-04-29T13:08:36;99366.03;;;15.84;56.88
40574;BME280;26283;49.020;8.644;2023-04-29T13:11:04;99372.28;;;15.84;56.87
40574;BME280;26283;49.020;8.644;2023-04-29T13:13:31;99373.09;;;15.85;56.87
40574;BME280;26283;49.020;8.644;2023-04-29T13:15:56;99369.56;;;15.84;56.86
40574;BME280;26283;49.020;8.644;2023-04-29T13:18:22;99370.38;;;15.85;56.85
40574;BME280;26283;49.020;8.644;2023-04-29T13:20:47;99367.66;;;15.85;56.85
40574;BME280;26283;49.020;8.644;2023-04-29T13:23:13;99367.66;;;15.85;56.84
40574;BME280;26283;49.020;8.644;2023-04-29T13:25:38;99372.84;;;15.86;56.84
40574;BME280;26283;49.020;8.644;2023-04-29T13:28:03;99370.13;;;15.86;56.83